sensor_id;sensor_type;location;lat;lon;timestamp;P1;durP1;ratioP1;P2;durP2;ratioP2
4821;SDS011;2425;47.794;13.068;2023-05-19T00:02:24;0.80;;;0.80;;
4821;SDS011;2425;47.794;13.068;2023-05-19T00:04:51;0.83;;;0.83;;
4821;SDS011;2425;47.794;13.068;2023-05-19T00:07:18;0.67;;;0.67;;
4821;SDS011;2425;47.794;13.068;2023-05-19T00:09:51;0.70;;;0.70;;
4821;SDS011;2425;47.794;13.068;2023-05-19T00:12:18;0.90;;;0.90;;
4821;SDS011;2425;47.794;13.068;2023-05-19T00:14:45;0.90;;;0.90;;
4821;SDS011;2425;47.794;13.068;2023-05-19T00:17:12;0.93;;;0.93;;
4821;SDS011;2425;47.794;13.068;2023-05-19T00:19:40;0.77;;;0.77;;
4821;SDS011;2425;47.794;13.068;2023-05-19T00:22:09;0.80;;;0.80;;
4821;SDS011;2425;47.794;13.068;2023-05-19T00:24:35;0.60;;;0.60;;
4821;SDS011;2425;47.794;13.068;2023-05-19T00:27:04;0.60;;;0.60;;
4821;SDS011;2425;47.794;13.068;2023-05-19T00:29:30;0.70;;;0.70;;
4821;SDS011;2425;47.794;13.068;2023-05-19T00:31:57;0.80;;;0.80;;
4821;SDS011;2425;47.794;13.068;2023-05-19T00:34:24;0.90;;;0.90;;
4821;SDS011;2425;47.794;13.068;2023-05-19T00:36:50;0.97;;;0.60;;
4821;SDS011;2425;47.794;13.068;2023-05-19T00:39:17;0.50;;;0.50;;
4821;SDS011;2425;47.794;13.068;2023-05-19T00:41:44;0.73;;;0.73;;
4821;SDS011;2425;47.794;13.068;2023-05-19T00:44:12;0.67;;;0.67;;
4821;SDS011;2425;47.794;13.068;2023-05-19T00:46:38;0.60;;;0.60;;
4821;SDS011;2425;47.794;13.068;2023-05-19T00:49:05;0.70;;;0.70;;
4821;SDS011;2425;47.794;13.068;2023-05-19T00:51:32;0.70;;;0.70;;
4821;SDS011;2425;47.794;13.068;2023-05-19T00:53:58;0.70;;;0.70;;
4821;SDS011;2425;47.794;13.068;2023-05-19T00:56:25;0.57;;;0.57;;
4821;SDS011;2425;47.794;13.068;2023-05-19T00:58:52;0.67;;;0.67;;
4821;SDS011;2425;47.794;13.068;2023-05-19T01:01:26;0.60;;;0.60;;
4821;SDS011;2425;47.794;13.068;2023-05-19T01:04:08;0.80;;;0.80;;
4821;SDS011;2425;47.794;13.068;2023-05-19T01:06:41;0.80;;;0.80;;
4821;SDS011;2425;47.794;13.068;2023-05-19T01:09:08;1.37;;;0.80;;
4821;SDS011;2425;47.794;13.068;2023-05-19T01:11:36;0.70;;;0.70;;
4821;SDS011;2425;47.794;13.068;2023-05-19T01:14:02;0.70;;;0.70;;
4821;SDS011;2425;47.794;13.068;2023-05-19T01:16:33;0.60;;;0.60;;
4821;SDS011;2425;47.794;13.068;2023-05-19T01:19:04;0.60;;;0.60;;
4821;SDS011;2425;47.794;13.068;2023-05-19T01:24:48;0.80;;;0.80;;
4821;SDS011;2425;47.794;13.068;2023-05-19T01:27:51;0.73;;;0.73;;
4821;SDS011;2425;47.794;13.068;2023-05-19T01:30:29;0.90;;;0.90;;
4821;SDS011;2425;47.794;13.068;2023-05-19T01:32:57;0.70;;;0.70;;
4821;SDS011;2425;47.794;13.068;2023-05-19T01:35:25;0.83;;;0.83;;
4821;SDS011;2425;47.794;13.068;2023-05-19T01:37:54;0.70;;;0.70;;
4821;SDS011;2425;47.794;13.068;2023-05-19T01:40:22;0.67;;;0.60;;
4821;SDS011;2425;47.794;13.068;2023-05-19T01:42:50;0.70;;;0.70;;
4821;SDS011;2425;47.794;13.068;2023-05-19T01:45:18;0.60;;;0.60;;
4821;SDS011;2425;47.794;13.068;2023-05-19T01:47:47;1.03;;;0.60;;
4821;SDS011;2425;47.794;13.068;2023-05-19T01:50:17;0.63;;;0.63;;
4821;SDS011;2425;47.794;13.068;2023-05-19T01:52:43;0.70;;;0.70;;
4821;SDS011;2425;47.794;13.068;2023-05-19T01:55:10;0.80;;;0.80;;
4821;SDS011;2425;47.794;13.068;2023-05-19T01:57:39;0.90;;;0.90;;
4821;SDS011;2425;47.794;13.068;2023-05-19T02:00:12;0.80;;;0.80;;
4821;SDS011;2425;47.794;13.068;2023-05-19T02:02:44;0.80;;;0.80;;
4821;SDS011;2425;47.794;13.068;2023-05-19T02:05:21;0.70;;;0.70;;
4821;SDS011;2425;47.794;13.068;2023-05-19T02:07:57;0.70;;;0.70;;
4821;SDS011;2425;47.794;13.068;2023-05-19T02:10:27;0.80;;;0.80;;
4821;SDS011;2425;47.794;13.068;2023-05-19T02:12:56;0.77;;;0.60;;
4821;SDS011;2425;47.794;13.068;2023-05-19T02:15:27;0.60;;;0.60;;
4821;SDS011;2425;47.794;13.068;2023-05-19T02:17:57;0.63;;;0.63;;
4821;SDS011;2425;47.794;13.068;2023-05-19T02:20:24;0.70;;;0.70;;
4821;SDS011;2425;47.794;13.068;2023-05-19T02:22:51;0.70;;;0.70;;
4821;SDS011;2425;47.794;13.068;2023-05-19T02:25:17;0.63;;;0.63;;
4821;SDS011;2425;47.794;13.068;2023-05-19T02:27:45;0.50;;;0.50;;
4821;SDS011;2425;47.794;13.068;2023-05-19T02:30:13;0.60;;;0.60;;
4821;SDS011;2425;47.794;13.068;2023-05-19T02:32:40;0.73;;;0.73;;
4821;SDS011;2425;47.794;13.068;2023-05-19T02:35:08;0.97;;;0.97;;
4821;SDS011;2425;47.794;13.068;2023-05-19T02:37:35;0.60;;;0.60;;
4821;SDS011;2425;47.794;13.068;2023-05-19T02:40:02;0.80;;;0.80;;
4821;SDS011;2425;47.794;13.068;2023-05-19T02:42:29;0.60;;;0.60;;
4821;SDS011;2425;47.794;13.068;2023-05-19T02:44:56;0.60;;;0.60;;
4821;SDS011;2425;47.794;13.068;2023-05-19T02:47:22;0.50;;;0.50;;
4821;SDS011;2425;47.794;13.068;2023-05-19T02:49:49;0.63;;;0.63;;
4821;SDS011;2425;47.794;13.068;2023-05-19T02:52:17;0.67;;;0.67;;
4821;SDS011;2425;47.794;13.068;2023-05-19T02:54:44;0.53;;;0.53;;
4821;SDS011;2425;47.794;13.068;2023-05-19T02:57:10;0.73;;;0.73;;
4821;SDS011;2425;47.794;13.068;2023-05-19T02:59:37;0.60;;;0.50;;
4821;SDS011;2425;47.794;13.068;2023-05-19T03:02:04;0.60;;;0.60;;
4821;SDS011;2425;47.794;13.068;2023-05-19T03:04:30;0.77;;;0.77;;
4821;SDS011;2425;47.794;13.068;2023-05-19T03:07:05;0.50;;;0.50;;
4821;SDS011;2425;47.794;13.068;2023-05-19T03:09:35;0.50;;;0.50;;
4821;SDS011;2425;47.794;13.068;2023-05-19T03:12:02;0.60;;;0.60;;
4821;SDS011;2425;47.794;13.068;2023-05-19T03:14:30;0.80;;;0.80;;
4821;SDS011;2425;47.794;13.068;2023-05-19T03:16:58;1.13;;;0.67;;
4821;SDS011;2425;47.794;13.068;2023-05-19T03:19:25;0.60;;;0.60;;
4821;SDS011;2425;47.794;13.068;2023-05-19T03:21:52;0.50;;;0.50;;
4821;SDS011;2425;47.794;13.068;2023-05-19T03:24:20;0.70;;;0.70;;
4821;SDS011;2425;47.794;13.068;2023-05-19T03:26:48;0.70;;;0.70;;
4821;SDS011;2425;47.794;13.068;2023-05-19T03:29:15;0.60;;;0.60;;
4821;SDS011;2425;47.794;13.068;2023-05-19T03:31:42;0.60;;;0.60;;
4821;SDS011;2425;47.794;13.068;2023-05-19T03:34:08;0.60;;;0.60;;
4821;SDS011;2425;47.794;13.068;2023-05-19T03:36:35;0.60;;;0.60;;
4821;SDS011;2425;47.794;13.068;2023-05-19T03:39:03;0.70;;;0.70;;
4821;SDS011;2425;47.794;13.068;2023-05-19T03:41:30;0.70;;;0.70;;
4821;SDS011;2425;47.794;13.068;2023-05-19T03:43:59;0.40;;;0.40;;
4821;SDS011;2425;47.794;13.068;2023-05-19T03:46:25;0.60;;;0.60;;
4821;SDS011;2425;47.794;13.068;2023-05-19T03:48:52;0.70;;;0.70;;
4821;SDS011;2425;47.794;13.068;2023-05-19T03:51:19;0.80;;;0.80;;
4821;SDS011;2425;47.794;13.068;2023-05-19T03:53:45;0.60;;;0.60;;
4821;SDS011;2425;47.794;13.068;2023-05-19T03:56:12;0.70;;;0.70;;
4821;SDS011;2425;47.794;13.068;2023-05-19T03:58:40;0.80;;;0.60;;
4821;SDS011;2425;47.794;13.068;2023-05-19T04:01:10;0.80;;;0.80;;
4821;SDS011;2425;47.794;13.068;2023-05-19T04:03:37;0.73;;;0.73;;
4821;SDS011;2425;47.794;13.068;2023-05-19T04:06:04;0.60;;;0.60;;
4821;SDS011;2425;47.794;13.068;2023-05-19T04:08:30;0.60;;;0.60;;
4821;SDS011;2425;47.794;13.068;2023-05-19T04:10:57;0.70;;;0.70;;
4821;SDS011;2425;47.794;13.068;2023-05-19T04:13:24;0.67;;;0.67;;
4821;SDS011;2425;47.794;13.068;2023-05-19T04:15:51;0.60;;;0.60;;
4821;SDS011;2425;47.794;13.068;2023-05-19T04:18:19;0.50;;;0.43;;
4821;SDS011;2425;47.794;13.068;2023-05-19T04:20:45;0.70;;;0.70;;
4821;SDS011;2425;47.794;13.068;2023-05-19T04:23:12;0.83;;;0.83;;
4821;SDS011;2425;47.794;13.068;2023-05-19T04:25:39;0.60;;;0.60;;
4821;SDS011;2425;47.794;13.068;2023-05-19T04:28:06;0.50;;;0.50;;
4821;SDS011;2425;47.794;13.068;2023-05-19T04:30:33;0.70;;;0.70;;
4821;SDS011;2425;47.794;13.068;2023-05-19T04:33:01;0.70;;;0.70;;
4821;SDS011;2425;47.794;13.068;2023-05-19T04:35:30;0.57;;;0.57;;
4821;SDS011;2425;47.794;13.068;2023-05-19T04:37:56;0.50;;;0.50;;
4821;SDS011;2425;47.794;13.068;2023-05-19T04:40:24;0.57;;;0.57;;
4821;SDS011;2425;47.794;13.068;2023-05-19T04:42:50;0.60;;;0.60;;
4821;SDS011;2425;47.794;13.068;2023-05-19T04:45:18;0.80;;;0.80;;
4821;SDS011;2425;47.794;13.068;2023-05-19T04:47:44;0.60;;;0.60;;
4821;SDS011;2425;47.794;13.068;2023-05-19T04:50:12;0.67;;;0.67;;
4821;SDS011;2425;47.794;13.068;2023-05-19T04:52:40;0.60;;;0.60;;
4821;SDS011;2425;47.794;13.068;2023-05-19T04:55:09;0.70;;;0.70;;
4821;SDS011;2425;47.794;13.068;2023-05-19T04:57:37;1.00;;;1.00;;
4821;SDS011;2425;47.794;13.068;2023-05-19T05:00:04;0.60;;;0.60;;
4821;SDS011;2425;47.794;13.068;2023-05-19T05:02:33;0.50;;;0.50;;
4821;SDS011;2425;47.794;13.068;2023-05-19T05:05:00;0.53;;;0.53;;
4821;SDS011;2425;47.794;13.068;2023-05-19T05:07:26;0.67;;;0.67;;
4821;SDS011;2425;47.794;13.068;2023-05-19T05:09:54;0.60;;;0.60;;
4821;SDS011;2425;47.794;13.068;2023-05-19T05:12:21;0.50;;;0.50;;
4821;SDS011;2425;47.794;13.068;2023-05-19T05:14:49;0.60;;;0.60;;
4821;SDS011;2425;47.794;13.068;2023-05-19T05:17:16;0.60;;;0.60;;
4821;SDS011;2425;47.794;13.068;2023-05-19T05:19:43;0.70;;;0.70;;
4821;SDS011;2425;47.794;13.068;2023-05-19T05:22:11;0.50;;;0.50;;
4821;SDS011;2425;47.794;13.068;2023-05-19T05:24:38;0.60;;;0.60;;
4821;SDS011;2425;47.794;13.068;2023-05-19T05:27:07;0.60;;;0.60;;
4821;SDS011;2425;47.794;13.068;2023-05-19T05:29:34;0.40;;;0.40;;
4821;SDS011;2425;47.794;13.068;2023-05-19T05:32:01;0.50;;;0.50;;
4821;SDS011;2425;47.794;13.068;2023-05-19T05:34:27;0.57;;;0.57;;
4821;SDS011;2425;47.794;13.068;2023-05-19T05:36:54;0.50;;;0.50;;
4821;SDS011;2425;47.794;13.068;2023-05-19T05:39:21;0.70;;;0.70;;
4821;SDS011;2425;47.794;13.068;2023-05-19T05:41:47;0.70;;;0.70;;
4821;SDS011;2425;47.794;13.068;2023-05-19T05:44:16;0.50;;;0.50;;
4821;SDS011;2425;47.794;13.068;2023-05-19T05:46:43;0.67;;;0.67;;
4821;SDS011;2425;47.794;13.068;2023-05-19T05:49:10;0.40;;;0.40;;
4821;SDS011;2425;47.794;13.068;2023-05-19T05:51:37;0.80;;;0.80;;
4821;SDS011;2425;47.794;13.068;2023-05-19T05:54:05;0.60;;;0.60;;
4821;SDS011;2425;47.794;13.068;2023-05-19T05:56:33;0.50;;;0.50;;
4821;SDS011;2425;47.794;13.068;2023-05-19T05:59:01;0.80;;;0.80;;
4821;SDS011;2425;47.794;13.068;2023-05-19T06:01:29;0.70;;;0.70;;
4821;SDS011;2425;47.794;13.068;2023-05-19T06:03:56;0.60;;;0.60;;
4821;SDS011;2425;47.794;13.068;2023-05-19T06:06:22;0.60;;;0.60;;
4821;SDS011;2425;47.794;13.068;2023-05-19T06:08:49;0.70;;;0.70;;
4821;SDS011;2425;47.794;13.068;2023-05-19T06:11:16;0.80;;;0.80;;
4821;SDS011;2425;47.794;13.068;2023-05-19T06:13:43;0.50;;;0.50;;
4821;SDS011;2425;47.794;13.068;2023-05-19T06:16:10;0.60;;;0.60;;
4821;SDS011;2425;47.794;13.068;2023-05-19T06:18:38;0.53;;;0.53;;
4821;SDS011;2425;47.794;13.068;2023-05-19T06:21:05;0.70;;;0.70;;
4821;SDS011;2425;47.794;13.068;2023-05-19T06:23:34;0.67;;;0.67;;
4821;SDS011;2425;47.794;13.068;2023-05-19T06:26:00;0.70;;;0.70;;
4821;SDS011;2425;47.794;13.068;2023-05-19T06:28:27;0.80;;;0.80;;
4821;SDS011;2425;47.794;13.068;2023-05-19T06:30:54;0.70;;;0.70;;
4821;SDS011;2425;47.794;13.068;2023-05-19T06:33:20;0.70;;;0.70;;
4821;SDS011;2425;47.794;13.068;2023-05-19T06:35:49;0.50;;;0.50;;
4821;SDS011;2425;47.794;13.068;2023-05-19T06:38:15;0.50;;;0.50;;
4821;SDS011;2425;47.794;13.068;2023-05-19T06:40:42;0.80;;;0.50;;
4821;SDS011;2425;47.794;13.068;2023-05-19T06:43:09;0.70;;;0.70;;
4821;SDS011;2425;47.794;13.068;2023-05-19T06:45:35;0.70;;;0.70;;
4821;SDS011;2425;47.794;13.068;2023-05-19T06:48:02;0.60;;;0.60;;
4821;SDS011;2425;47.794;13.068;2023-05-19T06:50:29;0.53;;;0.53;;
4821;SDS011;2425;47.794;13.068;2023-05-19T06:52:57;0.67;;;0.67;;
4821;SDS011;2425;47.794;13.068;2023-05-19T06:55:24;0.60;;;0.60;;
4821;SDS011;2425;47.794;13.068;2023-05-19T06:57:51;0.50;;;0.50;;
4821;SDS011;2425;47.794;13.068;2023-05-19T07:00:17;0.70;;;0.70;;
4821;SDS011;2425;47.794;13.068;2023-05-19T07:02:44;0.70;;;0.70;;
4821;SDS011;2425;47.794;13.068;2023-05-19T07:05:11;0.60;;;0.60;;
4821;SDS011;2425;47.794;13.068;2023-05-19T07:07:38;0.60;;;0.60;;
4821;SDS011;2425;47.794;13.068;2023-05-19T07:10:07;0.80;;;0.80;;
4821;SDS011;2425;47.794;13.068;2023-05-19T07:12:34;0.70;;;0.70;;
4821;SDS011;2425;47.794;13.068;2023-05-19T07:15:01;0.50;;;0.50;;
4821;SDS011;2425;47.794;13.068;2023-05-19T07:17:28;0.63;;;0.63;;
4821;SDS011;2425;47.794;13.068;2023-05-19T07:19:55;0.70;;;0.70;;
4821;SDS011;2425;47.794;13.068;2023-05-19T07:22:21;0.60;;;0.60;;
4821;SDS011;2425;47.794;13.068;2023-05-19T07:24:49;0.53;;;0.53;;
4821;SDS011;2425;47.794;13.068;2023-05-19T07:27:17;0.60;;;0.60;;
4821;SDS011;2425;47.794;13.068;2023-05-19T07:29:44;0.60;;;0.60;;
4821;SDS011;2425;47.794;13.068;2023-05-19T07:32:10;0.60;;;0.60;;
4821;SDS011;2425;47.794;13.068;2023-05-19T07:34:37;0.57;;;0.57;;
4821;SDS011;2425;47.794;13.068;2023-05-19T07:37:04;0.63;;;0.63;;
4821;SDS011;2425;47.794;13.068;2023-05-19T07:39:30;0.37;;;0.37;;
4821;SDS011;2425;47.794;13.068;2023-05-19T07:41:57;1.00;;;0.70;;
4821;SDS011;2425;47.794;13.068;2023-05-19T07:44:25;0.70;;;0.70;;
4821;SDS011;2425;47.794;13.068;2023-05-19T07:46:52;0.60;;;0.60;;
4821;SDS011;2425;47.794;13.068;2023-05-19T07:49:19;0.63;;;0.63;;
4821;SDS011;2425;47.794;13.068;2023-05-19T07:51:45;1.03;;;0.90;;
4821;SDS011;2425;47.794;13.068;2023-05-19T07:54:12;0.70;;;0.70;;
4821;SDS011;2425;47.794;13.068;2023-05-19T07:56:39;0.60;;;0.60;;
4821;SDS011;2425;47.794;13.068;2023-05-19T07:59:05;0.93;;;0.60;;
4821;SDS011;2425;47.794;13.068;2023-05-19T08:01:34;0.77;;;0.77;;
4821;SDS011;2425;47.794;13.068;2023-05-19T08:04:00;0.70;;;0.70;;
4821;SDS011;2425;47.794;13.068;2023-05-19T08:06:27;0.93;;;0.93;;
4821;SDS011;2425;47.794;13.068;2023-05-19T08:08:55;2.57;;;0.90;;
4821;SDS011;2425;47.794;13.068;2023-05-19T08:11:22;1.27;;;0.93;;
4821;SDS011;2425;47.794;13.068;2023-05-19T08:13:49;0.67;;;0.67;;
4821;SDS011;2425;47.794;13.068;2023-05-19T08:16:16;1.00;;;1.00;;
4821;SDS011;2425;47.794;13.068;2023-05-19T08:18:44;0.80;;;0.80;;
4821;SDS011;2425;47.794;13.068;2023-05-19T08:21:11;0.67;;;0.67;;
4821;SDS011;2425;47.794;13.068;2023-05-19T08:23:37;0.90;;;0.90;;
4821;SDS011;2425;47.794;13.068;2023-05-19T08:26:04;0.77;;;0.77;;
4821;SDS011;2425;47.794;13.068;2023-05-19T08:28:31;1.00;;;0.87;;
4821;SDS011;2425;47.794;13.068;2023-05-19T08:30:57;6.33;;;1.00;;
4821;SDS011;2425;47.794;13.068;2023-05-19T08:33:24;0.83;;;0.83;;
4821;SDS011;2425;47.794;13.068;2023-05-19T08:35:52;1.00;;;1.00;;
4821;SDS011;2425;47.794;13.068;2023-05-19T08:38:22;0.97;;;0.97;;
4821;SDS011;2425;47.794;13.068;2023-05-19T08:40:48;1.30;;;1.30;;
4821;SDS011;2425;47.794;13.068;2023-05-19T08:43:15;1.00;;;1.00;;
4821;SDS011;2425;47.794;13.068;2023-05-19T08:45:42;2.23;;;1.20;;
4821;SDS011;2425;47.794;13.068;2023-05-19T08:48:11;2.20;;;1.60;;
4821;SDS011;2425;47.794;13.068;2023-05-19T08:50:39;4.73;;;1.53;;
4821;SDS011;2425;47.794;13.068;2023-05-19T08:53:09;1.80;;;1.70;;
4821;SDS011;2425;47.794;13.068;2023-05-19T08:55:39;1.23;;;1.23;;
4821;SDS011;2425;47.794;13.068;2023-05-19T08:58:07;1.70;;;1.60;;
4821;SDS011;2425;47.794;13.068;2023-05-19T09:00:34;1.93;;;1.80;;
4821;SDS011;2425;47.794;13.068;2023-05-19T09:03:01;1.70;;;1.60;;
4821;SDS011;2425;47.794;13.068;2023-05-19T09:05:28;1.73;;;1.63;;
4821;SDS011;2425;47.794;13.068;2023-05-19T09:07:56;1.90;;;1.80;;
4821;SDS011;2425;47.794;13.068;2023-05-19T09:10:24;1.50;;;1.50;;
4821;SDS011;2425;47.794;13.068;2023-05-19T09:12:50;6.23;;;1.40;;
4821;SDS011;2425;47.794;13.068;2023-05-19T09:15:17;1.50;;;1.50;;
4821;SDS011;2425;47.794;13.068;2023-05-19T09:17:44;1.30;;;1.30;;
4821;SDS011;2425;47.794;13.068;2023-05-19T09:20:12;1.10;;;1.10;;
4821;SDS011;2425;47.794;13.068;2023-05-19T09:22:41;1.50;;;1.50;;
4821;SDS011;2425;47.794;13.068;2023-05-19T09:25:18;1.60;;;1.50;;
4821;SDS011;2425;47.794;13.068;2023-05-19T09:27:47;1.33;;;1.30;;
4821;SDS011;2425;47.794;13.068;2023-05-19T09:30:14;1.50;;;1.50;;
4821;SDS011;2425;47.794;13.068;2023-05-19T09:32:42;1.50;;;1.50;;
4821;SDS011;2425;47.794;13.068;2023-05-19T09:35:09;1.50;;;1.50;;
4821;SDS011;2425;47.794;13.068;2023-05-19T09:37:38;1.50;;;1.50;;
4821;SDS011;2425;47.794;13.068;2023-05-19T09:40:06;1.43;;;1.33;;
4821;SDS011;2425;47.794;13.068;2023-05-19T09:42:36;1.57;;;1.57;;
4821;SDS011;2425;47.794;13.068;2023-05-19T09:45:05;2.20;;;1.50;;
4821;SDS011;2425;47.794;13.068;2023-05-19T09:47:33;1.40;;;1.40;;
4821;SDS011;2425;47.794;13.068;2023-05-19T09:50:00;5.33;;;1.53;;
4821;SDS011;2425;47.794;13.068;2023-05-19T09:52:27;1.13;;;1.13;;
4821;SDS011;2425;47.794;13.068;2023-05-19T09:54:55;1.47;;;1.47;;
4821;SDS011;2425;47.794;13.068;2023-05-19T09:57:24;1.83;;;1.37;;
4821;SDS011;2425;47.794;13.068;2023-05-19T09:59:51;1.50;;;1.40;;
4821;SDS011;2425;47.794;13.068;2023-05-19T10:02:19;1.53;;;1.43;;
4821;SDS011;2425;47.794;13.068;2023-05-19T10:04:48;1.70;;;1.60;;
4821;SDS011;2425;47.794;13.068;2023-05-19T10:07:15;2.77;;;1.27;;
4821;SDS011;2425;47.794;13.068;2023-05-19T10:09:43;1.33;;;1.13;;
4821;SDS011;2425;47.794;13.068;2023-05-19T10:12:10;1.40;;;1.30;;
4821;SDS011;2425;47.794;13.068;2023-05-19T10:14:37;1.30;;;1.30;;
4821;SDS011;2425;47.794;13.068;2023-05-19T10:17:04;1.10;;;1.10;;
4821;SDS011;2425;47.794;13.068;2023-05-19T10:19:32;1.13;;;1.13;;
4821;SDS011;2425;47.794;13.068;2023-05-19T10:21:59;1.27;;;1.27;;
4821;SDS011;2425;47.794;13.068;2023-05-19T10:24:26;1.10;;;1.10;;
4821;SDS011;2425;47.794;13.068;2023-05-19T10:26:54;1.37;;;1.37;;
4821;SDS011;2425;47.794;13.068;2023-05-19T10:29:24;1.17;;;1.17;;
4821;SDS011;2425;47.794;13.068;2023-05-19T10:31:52;1.47;;;1.40;;
4821;SDS011;2425;47.794;13.068;2023-05-19T10:34:31;1.07;;;1.07;;
4821;SDS011;2425;47.794;13.068;2023-05-19T10:37:15;1.20;;;1.20;;
4821;SDS011;2425;47.794;13.068;2023-05-19T10:39:48;1.20;;;1.20;;
4821;SDS011;2425;47.794;13.068;2023-05-19T10:42:18;1.60;;;1.60;;
4821;SDS011;2425;47.794;13.068;2023-05-19T10:44:56;1.40;;;1.40;;
4821;SDS011;2425;47.794;13.068;2023-05-19T10:47:28;1.40;;;1.40;;
4821;SDS011;2425;47.794;13.068;2023-05-19T10:49:57;1.17;;;1.17;;
4821;SDS011;2425;47.794;13.068;2023-05-19T10:52:25;1.30;;;1.30;;
4821;SDS011;2425;47.794;13.068;2023-05-19T10:54:54;1.13;;;1.13;;
4821;SDS011;2425;47.794;13.068;2023-05-19T10:57:24;1.20;;;1.20;;
4821;SDS011;2425;47.794;13.068;2023-05-19T10:59:52;1.30;;;1.30;;
4821;SDS011;2425;47.794;13.068;2023-05-19T11:02:36;1.33;;;1.33;;
4821;SDS011;2425;47.794;13.068;2023-05-19T11:05:10;1.10;;;1.10;;
4821;SDS011;2425;47.794;13.068;2023-05-19T11:07:39;2.20;;;1.40;;
4821;SDS011;2425;47.794;13.068;2023-05-19T11:10:07;1.27;;;1.17;;
4821;SDS011;2425;47.794;13.068;2023-05-19T11:12:41;1.20;;;1.20;;
4821;SDS011;2425;47.794;13.068;2023-05-19T11:15:10;1.27;;;1.27;;
4821;SDS011;2425;47.794;13.068;2023-05-19T11:17:38;1.10;;;1.10;;
4821;SDS011;2425;47.794;13.068;2023-05-19T11:20:06;1.07;;;1.07;;
4821;SDS011;2425;47.794;13.068;2023-05-19T11:22:36;1.10;;;1.10;;
4821;SDS011;2425;47.794;13.068;2023-05-19T11:25:03;1.00;;;1.00;;
4821;SDS011;2425;47.794;13.068;2023-05-19T11:27:31;1.20;;;1.20;;
4821;SDS011;2425;47.794;13.068;2023-05-19T11:29:59;1.00;;;1.00;;
4821;SDS011;2425;47.794;13.068;2023-05-19T11:32:30;1.27;;;1.27;;
4821;SDS011;2425;47.794;13.068;2023-05-19T11:34:57;1.23;;;1.23;;
4821;SDS011;2425;47.794;13.068;2023-05-19T11:37:25;1.30;;;1.20;;
4821;SDS011;2425;47.794;13.068;2023-05-19T11:39:54;1.60;;;1.50;;
4821;SDS011;2425;47.794;13.068;2023-05-19T11:42:20;1.00;;;1.00;;
4821;SDS011;2425;47.794;13.068;2023-05-19T11:44:47;1.30;;;1.30;;
4821;SDS011;2425;47.794;13.068;2023-05-19T11:47:14;1.40;;;1.40;;
4821;SDS011;2425;47.794;13.068;2023-05-19T11:49:42;1.30;;;1.30;;
4821;SDS011;2425;47.794;13.068;2023-05-19T11:52:08;1.50;;;1.50;;
4821;SDS011;2425;47.794;13.068;2023-05-19T11:54:35;1.67;;;1.67;;
4821;SDS011;2425;47.794;13.068;2023-05-19T11:57:04;1.43;;;1.33;;
4821;SDS011;2425;47.794;13.068;2023-05-19T11:59:33;1.10;;;1.10;;
4821;SDS011;2425;47.794;13.068;2023-05-19T12:02:01;1.60;;;1.50;;
4821;SDS011;2425;47.794;13.068;2023-05-19T12:04:29;1.70;;;1.60;;
4821;SDS011;2425;47.794;13.068;2023-05-19T12:06:56;1.80;;;1.70;;
4821;SDS011;2425;47.794;13.068;2023-05-19T12:09:22;1.47;;;1.47;;
4821;SDS011;2425;47.794;13.068;2023-05-19T12:11:49;1.70;;;1.60;;
4821;SDS011;2425;47.794;13.068;2023-05-19T12:14:19;1.50;;;1.50;;
4821;SDS011;2425;47.794;13.068;2023-05-19T12:16:46;1.77;;;1.70;;
4821;SDS011;2425;47.794;13.068;2023-05-19T12:19:12;1.57;;;1.47;;
4821;SDS011;2425;47.794;13.068;2023-05-19T12:21:39;1.50;;;1.40;;
4821;SDS011;2425;47.794;13.068;2023-05-19T12:24:06;1.50;;;1.50;;
4821;SDS011;2425;47.794;13.068;2023-05-19T12:26:34;1.47;;;1.47;;
4821;SDS011;2425;47.794;13.068;2023-05-19T12:29:01;3.03;;;1.93;;
4821;SDS011;2425;47.794;13.068;2023-05-19T12:31:31;1.80;;;1.80;;
4821;SDS011;2425;47.794;13.068;2023-05-19T12:33:58;1.73;;;1.70;;
4821;SDS011;2425;47.794;13.068;2023-05-19T12:36:25;1.50;;;1.40;;
4821;SDS011;2425;47.794;13.068;2023-05-19T12:38:53;1.70;;;1.60;;
4821;SDS011;2425;47.794;13.068;2023-05-19T12:41:19;1.73;;;1.73;;
4821;SDS011;2425;47.794;13.068;2023-05-19T12:43:46;1.57;;;1.47;;
4821;SDS011;2425;47.794;13.068;2023-05-19T12:46:14;1.60;;;1.60;;
4821;SDS011;2425;47.794;13.068;2023-05-19T12:48:45;1.50;;;1.50;;
4821;SDS011;2425;47.794;13.068;2023-05-19T12:51:15;1.67;;;1.67;;
4821;SDS011;2425;47.794;13.068;2023-05-19T12:53:42;1.97;;;1.87;;
4821;SDS011;2425;47.794;13.068;2023-05-19T12:56:09;1.50;;;1.50;;
4821;SDS011;2425;47.794;13.068;2023-05-19T12:58:37;1.60;;;1.60;;
4821;SDS011;2425;47.794;13.068;2023-05-19T13:01:05;2.97;;;1.87;;
4821;SDS011;2425;47.794;13.068;2023-05-19T13:03:33;1.50;;;1.50;;
4821;SDS011;2425;47.794;13.068;2023-05-19T13:06:07;1.77;;;1.67;;
4821;SDS011;2425;47.794;13.068;2023-05-19T13:08:35;1.40;;;1.40;;
4821;SDS011;2425;47.794;13.068;2023-05-19T13:11:02;1.57;;;1.57;;
4821;SDS011;2425;47.794;13.068;2023-05-19T13:13:29;1.60;;;1.60;;
4821;SDS011;2425;47.794;13.068;2023-05-19T13:15:56;1.70;;;1.70;;
4821;SDS011;2425;47.794;13.068;2023-05-19T13:18:23;1.60;;;1.60;;
4821;SDS011;2425;47.794;13.068;2023-05-19T13:20:51;1.53;;;1.53;;
4821;SDS011;2425;47.794;13.068;2023-05-19T13:23:20;1.60;;;1.60;;
4821;SDS011;2425;47.794;13.068;2023-05-19T13:25:46;1.77;;;1.67;;
4821;SDS011;2425;47.794;13.068;2023-05-19T13:28:14;1.70;;;1.70;;
4821;SDS011;2425;47.794;13.068;2023-05-19T13:30:42;1.90;;;1.90;;
4821;SDS011;2425;47.794;13.068;2023-05-19T13:33:09;1.70;;;1.70;;
4821;SDS011;2425;47.794;13.068;2023-05-19T13:35:36;1.80;;;1.70;;
4821;SDS011;2425;47.794;13.068;2023-05-19T13:38:03;2.03;;;1.93;;
4821;SDS011;2425;47.794;13.068;2023-05-19T13:40:31;1.70;;;1.60;;
4821;SDS011;2425;47.794;13.068;2023-05-19T13:42:58;1.90;;;1.90;;
4821;SDS011;2425;47.794;13.068;2023-05-19T13:45:26;2.07;;;1.90;;
4821;SDS011;2425;47.794;13.068;2023-05-19T13:47:52;1.90;;;1.87;;
4821;SDS011;2425;47.794;13.068;2023-05-19T13:50:19;1.80;;;1.70;;
4821;SDS011;2425;47.794;13.068;2023-05-19T13:52:46;1.87;;;1.80;;
4821;SDS011;2425;47.794;13.068;2023-05-19T13:55:13;7.10;;;1.57;;
4821;SDS011;2425;47.794;13.068;2023-05-19T13:57:41;1.83;;;1.83;;
4821;SDS011;2425;47.794;13.068;2023-05-19T14:00:09;2.10;;;2.00;;
4821;SDS011;2425;47.794;13.068;2023-05-19T14:02:36;2.10;;;2.00;;
4821;SDS011;2425;47.794;13.068;2023-05-19T14:05:03;1.67;;;1.67;;
4821;SDS011;2425;47.794;13.068;2023-05-19T14:07:31;1.90;;;1.90;;
4821;SDS011;2425;47.794;13.068;2023-05-19T14:09:58;1.97;;;1.97;;
4821;SDS011;2425;47.794;13.068;2023-05-19T14:12:25;1.60;;;1.60;;
4821;SDS011;2425;47.794;13.068;2023-05-19T14:14:53;1.57;;;1.57;;
4821;SDS011;2425;47.794;13.068;2023-05-19T14:17:20;2.27;;;2.17;;
4821;SDS011;2425;47.794;13.068;2023-05-19T14:19:46;2.10;;;2.00;;
4821;SDS011;2425;47.794;13.068;2023-05-19T14:22:13;2.20;;;2.10;;
4821;SDS011;2425;47.794;13.068;2023-05-19T14:24:40;2.53;;;2.33;;
4821;SDS011;2425;47.794;13.068;2023-05-19T14:27:06;2.23;;;2.13;;
4821;SDS011;2425;47.794;13.068;2023-05-19T14:29:33;1.60;;;1.60;;
4821;SDS011;2425;47.794;13.068;2023-05-19T14:32:01;2.00;;;2.00;;
4821;SDS011;2425;47.794;13.068;2023-05-19T14:34:29;2.20;;;2.10;;
4821;SDS011;2425;47.794;13.068;2023-05-19T14:36:56;2.30;;;2.20;;
4821;SDS011;2425;47.794;13.068;2023-05-19T14:39:23;2.40;;;2.30;;
4821;SDS011;2425;47.794;13.068;2023-05-19T14:41:49;2.27;;;2.07;;
4821;SDS011;2425;47.794;13.068;2023-05-19T14:44:17;2.40;;;2.30;;
4821;SDS011;2425;47.794;13.068;2023-05-19T14:46:43;2.23;;;2.13;;
4821;SDS011;2425;47.794;13.068;2023-05-19T14:49:11;2.50;;;2.40;;
4821;SDS011;2425;47.794;13.068;2023-05-19T14:51:38;2.00;;;1.90;;
4821;SDS011;2425;47.794;13.068;2023-05-19T14:54:05;2.03;;;1.93;;
4821;SDS011;2425;47.794;13.068;2023-05-19T14:56:31;2.30;;;2.20;;
4821;SDS011;2425;47.794;13.068;2023-05-19T14:58:58;2.30;;;2.20;;
4821;SDS011;2425;47.794;13.068;2023-05-19T15:01:25;2.33;;;2.23;;
4821;SDS011;2425;47.794;13.068;2023-05-19T15:03:51;2.23;;;2.13;;
4821;SDS011;2425;47.794;13.068;2023-05-19T15:06:19;2.53;;;2.43;;
4821;SDS011;2425;47.794;13.068;2023-05-19T15:08:46;2.07;;;1.97;;